Time;durP1;ratioP1;P1;durP2;ratioP2;P2;SDS_P1;SDS_P2;PMS_P1;PMS_P2;Temp;Humidity;BMP_temperature;BMP_pressure;BME280_temperature;BME280_humidity;BME280_pressure;Samples;Min_cycle;Max_cycle;Signal;HPM_P1;HPM_P2
2023/10/05 00:02:09;;;;;;;11.70;3.67;;;;;;;15.57;89.88;101427.94;8266643;28;20061;-60
2023/10/05 00:06:14;;;;;;;14.32;3.78;;;;;;;15.52;90.29;101437.56;8271210;28;20038;-63
2023/10/05 00:10:15;;;;;;;14.85;3.70;;;;;;;15.50;90.78;101429.53;8268928;28;20507;-62
2023/10/05 00:14:16;;;;;;;9.85;3.25;;;;;;;15.46;91.10;101433.56;8267305;28;20042;-65
2023/10/05 00:18:19;;;;;;;13.73;3.95;;;;;;;15.36;91.71;101430.00;8269716;28;20041;-65
2023/10/05 00:22:20;;;;;;;11.90;3.20;;;;;;;15.40;91.43;101434.16;8266119;28;20685;-65
2023/10/05 00:26:23;;;;;;;9.48;3.05;;;;;;;15.46;91.27;101417.22;8272002;28;20391;-60
2023/10/05 00:30:26;;;;;;;12.38;3.15;;;;;;;15.50;90.73;101429.53;8264830;28;20464;-60
2023/10/05 00:34:30;;;;;;;16.73;3.58;;;;;;;15.57;90.22;101422.50;8269483;28;20041;-65
2023/10/05 00:38:30;;;;;;;9.00;3.35;;;;;;;15.59;90.33;101423.19;8266299;28;20515;-65
2023/10/05 00:42:31;;;;;;;14.23;3.35;;;;;;;15.50;90.92;101418.63;8271510;28;20409;-64
2023/10/05 00:46:37;;;;;;;13.18;3.67;;;;;;;15.43;91.18;101414.78;8268817;28;20412;-62
2023/10/05 00:50:39;;;;;;;16.42;3.30;;;;;;;15.43;91.13;101417.53;8269394;28;20495;-61
2023/10/05 00:54:45;;;;;;;10.70;3.75;;;;;;;15.41;91.71;101416.81;8269717;28;20109;-62
2023/10/05 00:58:47;;;;;;;11.23;3.63;;;;;;;15.40;91.99;101417.81;8263985;28;20049;-62
2023/10/05 01:03:17;;;;;;;9.32;3.60;;;;;;;15.44;91.38;101419.22;8270512;28;20049;-62
2023/10/05 01:07:18;;;;;;;10.15;3.17;;;;;;;15.34;91.96;101415.66;8275260;28;20650;-62
2023/10/05 01:11:25;;;;;;;12.18;3.33;;;;;;;15.37;92.15;101428.19;8268905;28;20035;-62
2023/10/05 01:15:33;;;;;;;10.27;3.15;;;;;;;15.57;91.15;101413.44;8273628;28;20103;-60
2023/10/05 01:19:38;;;;;;;6.55;2.75;;;;;;;15.71;89.72;101421.13;8274288;28;20045;-59
2023/10/05 01:23:39;;;;;;;8.82;2.50;;;;;;;15.83;88.94;101427.25;8276314;28;20041;-60
2023/10/05 01:27:43;;;;;;;14.52;2.90;;;;;;;15.90;87.70;101425.59;8272260;28;20038;-62
2023/10/05 01:31:43;;;;;;;11.38;2.90;;;;;;;15.97;87.81;101426.72;8270932;28;20042;-60
2023/10/05 01:35:46;;;;;;;11.48;2.75;;;;;;;16.03;87.02;101431.56;8275520;28;20050;-60
2023/10/05 01:39:47;;;;;;;6.40;2.15;;;;;;;16.14;86.74;101426.75;8275166;28;20048;-60
2023/10/05 01:43:48;;;;;;;10.20;2.88;;;;;;;16.21;86.50;101424.25;8275075;28;20085;-60
2023/10/05 01:47:49;;;;;;;11.10;2.97;;;;;;;16.27;86.37;101431.81;8274143;28;20493;-59
2023/10/05 01:51:52;;;;;;;9.13;2.25;;;;;;;16.32;85.36;101432.22;8273950;28;20411;-60
2023/10/05 01:55:53;;;;;;;8.05;2.20;;;;;;;16.39;85.49;101444.22;8274171;28;20039;-61
2023/10/05 01:59:54;;;;;;;8.20;2.63;;;;;;;16.32;84.98;101433.09;8269068;28;20045;-61
2023/10/05 02:03:57;;;;;;;11.30;3.05;;;;;;;16.31;85.29;101430.53;8273587;28;20070;-62
2023/10/05 02:07:58;;;;;;;8.50;2.53;;;;;;;16.31;85.51;101435.97;8275325;28;20048;-59
2023/10/05 02:12:02;;;;;;;6.88;2.22;;;;;;;16.24;85.42;101434.84;8272201;28;20049;-60
2023/10/05 02:16:02;;;;;;;8.07;2.67;;;;;;;16.15;85.97;101430.31;8272325;28;20042;-60
2023/10/05 02:20:08;;;;;;;10.23;2.28;;;;;;;16.10;85.87;101425.31;8273155;28;20129;-60
2023/10/05 02:24:15;;;;;;;11.63;2.38;;;;;;;16.14;86.30;101420.44;8273817;28;20475;-59
2023/10/05 02:28:25;;;;;;;9.30;2.13;;;;;;;16.04;86.44;101411.47;8271660;28;20041;-62
2023/10/05 02:32:27;;;;;;;10.32;2.72;;;;;;;16.02;86.46;101410.75;8273970;28;20048;-60
2023/10/05 02:36:30;;;;;;;9.07;2.15;;;;;;;15.95;86.90;101401.47;8272191;28;20165;-62
2023/10/05 02:40:46;;;;;;;8.27;2.03;;;;;;;15.93;87.19;101398.91;8268207;28;20392;-60
2023/10/05 02:44:46;;;;;;;7.50;2.30;;;;;;;15.87;87.09;101399.50;8266691;28;20045;-60
2023/10/05 02:48:48;;;;;;;11.30;2.20;;;;;;;15.88;87.44;101400.34;8274548;28;20041;-59
2023/10/05 02:52:48;;;;;;;11.07;2.63;;;;;;;15.84;87.64;101393.50;8272378;28;20030;-60
2023/10/05 02:56:49;;;;;;;4.65;1.98;;;;;;;15.79;87.72;101388.50;8267753;28;20034;-59
2023/10/05 03:00:49;;;;;;;10.13;2.40;;;;;;;15.87;87.91;101393.19;8269299;28;20498;-60
2023/10/05 03:04:58;;;;;;;7.85;2.20;;;;;;;15.84;87.71;101393.50;8269403;28;20066;-60
2023/10/05 03:09:07;;;;;;;10.65;2.30;;;;;;;15.73;88.17;101400.88;8267534;28;20132;-61
2023/10/05 03:13:07;;;;;;;8.85;2.10;;;;;;;15.74;88.19;101399.03;8267128;28;20046;-61
2023/10/05 03:17:12;;;;;;;12.88;3.05;;;;;;;15.81;88.32;101393.81;8268907;28;20081;-61
2023/10/05 03:21:14;;;;;;;9.88;2.75;;;;;;;15.73;88.18;101389.97;8271032;28;20038;-61
2023/10/05 03:25:16;;;;;;;7.13;1.90;;;;;;;15.80;87.97;101403.88;8270880;28;20066;-64
2023/10/05 03:29:17;;;;;;;6.90;2.47;;;;;;;15.87;88.22;101398.63;8273475;28;20084;-64
2023/10/05 03:33:23;;;;;;;5.68;2.40;;;;;;;15.83;88.90;101403.56;8268432;28;20048;-64
2023/10/05 03:37:24;;;;;;;9.48;1.88;;;;;;;15.71;90.09;101404.78;8269790;28;20061;-59
2023/10/05 03:41:26;;;;;;;6.45;2.03;;;;;;;15.54;91.20;101395.53;8271838;28;20050;-63
2023/10/05 03:45:28;;;;;;;7.05;2.17;;;;;;;15.54;92.26;101400.13;8269550;28;20057;-59
2023/10/05 03:49:29;;;;;;;10.73;2.22;;;;;;;15.45;91.98;101403.75;8271778;28;20144;-59
2023/10/05 03:53:30;;;;;;;7.65;1.83;;;;;;;15.56;91.17;101401.69;8265949;28;20503;-60
2023/10/05 03:57:31;;;;;;;10.88;2.78;;;;;;;15.63;90.16;101407.41;8270443;28;20048;-59
2023/10/05 04:01:33;;;;;;;8.63;1.98;;;;;;;15.64;88.78;101409.97;8269835;28;20092;-59
2023/10/05 04:05:33;;;;;;;4.90;1.70;;;;;;;15.76;89.76;101401.59;8269970;28;20046;-59
2023/10/05 04:09:35;;;;;;;8.65;1.92;;;;;;;15.80;88.78;101403.00;8268792;28;20499;-60
2023/10/05 04:13:36;;;;;;;9.50;2.10;;;;;;;15.84;87.92;101407.13;8252729;28;20608;-59
2023/10/05 04:17:37;;;;;;;7.72;2.30;;;;;;;15.88;87.66;101403.94;8266398;28;20455;-59
2023/10/05 04:21:39;;;;;;;7.57;2.10;;;;;;;15.88;87.29;101401.22;8258773;28;20452;-59
2023/10/05 04:25:40;;;;;;;8.32;2.33;;;;;;;15.95;87.70;101406.94;8264004;28;20069;-61
2023/10/05 04:29:41;;;;;;;12.88;2.22;;;;;;;15.91;87.45;101406.38;8267891;28;20492;-62
2023/10/05 04:33:43;;;;;;;9.13;2.08;;;;;;;15.90;88.10;101406.53;8268827;28;20464;-61
2023/10/05 04:37:43;;;;;;;6.57;1.70;;;;;;;15.87;87.89;101393.19;8254000;28;20531;-61
2023/10/05 04:41:49;;;;;;;5.88;1.70;;;;;;;15.89;87.90;101392.00;8274234;28;20462;-61
2023/10/05 04:45:51;;;;;;;8.77;1.90;;;;;;;15.90;88.06;101392.88;8269333;28;20042;-61
2023/10/05 04:49:52;;;;;;;9.13;1.60;;;;;;;15.91;88.53;101389.13;8279311;28;20141;-61
2023/10/05 04:53:54;;;;;;;7.00;1.92;;;;;;;15.94;88.53;101384.25;8276100;28;20385;-61
2023/10/05 04:58:14;;;;;;;6.85;1.98;;;;;;;16.00;88.84;101388.22;8276862;28;20045;-61
2023/10/05 05:02:20;;;;;;;10.63;2.10;;;;;;;16.08;87.96;101397.38;8261338;28;20034;-61
2023/10/05 05:06:25;;;;;;;13.85;1.90;;;;;;;15.99;88.70;101391.97;8243420;28;20437;-59
2023/10/05 05:10:26;;;;;;;6.88;1.75;;;;;;;15.95;89.17;101396.84;8274230;28;20070;-61
2023/10/05 05:14:26;;;;;;;6.22;1.73;;;;;;;15.94;89.55;101391.56;8265255;28;20082;-59
2023/10/05 05:18:27;;;;;;;8.27;2.08;;;;;;;15.89;89.43;101383.00;8270580;28;20072;-61
2023/10/05 05:22:29;;;;;;;7.75;1.73;;;;;;;15.90;89.51;101376.53;8272405;28;20092;-61
2023/10/05 05:26:30;;;;;;;12.57;2.45;;;;;;;15.96;89.20;101387.69;8275048;28;20512;-62
2023/10/05 05:30:30;;;;;;;7.10;2.40;;;;;;;16.04;88.74;101378.72;8273282;28;20470;-62
2023/10/05 05:34:31;;;;;;;12.75;2.40;;;;;;;16.01;88.58;101379.03;8264582;28;20113;-61
2023/10/05 05:38:33;;;;;;;8.52;1.95;;;;;;;16.01;88.79;101379.88;8272567;28;20080;-59
2023/10/05 05:42:35;;;;;;;7.97;1.92;;;;;;;15.97;89.59;101366.69;8272247;28;20048;-61
2023/10/05 05:46:35;;;;;;;6.70;1.73;;;;;;;16.00;89.43;101366.38;8269284;28;20339;-60
2023/10/05 05:50:39;;;;;;;12.07;1.92;;;;;;;16.04;89.19;101368.66;8275925;28;20384;-59
2023/10/05 05:54:41;;;;;;;7.55;2.30;;;;;;;16.04;88.94;101373.28;8274146;28;20046;-59
2023/10/05 05:58:43;;;;;;;6.85;1.92;;;;;;;16.05;89.35;101388.63;8265964;28;20039;-60
2023/10/05 06:02:44;;;;;;;10.30;1.95;;;;;;;16.07;88.85;101394.78;8272211;28;20520;-61
2023/10/05 06:06:48;;;;;;;7.13;1.60;;;;;;;16.06;89.41;101385.72;8272887;28;20037;-61
2023/10/05 06:10:51;;;;;;;10.70;2.08;;;;;;;16.13;88.90;101396.91;8270318;28;20448;-61
2023/10/05 06:14:51;;;;;;;11.57;1.80;;;;;;;16.12;89.25;101397.88;8275718;28;20113;-62
2023/10/05 06:18:52;;;;;;;11.18;1.80;;;;;;;16.18;88.88;101413.66;8272539;28;20041;-61
2023/10/05 06:22:52;;;;;;;8.93;1.85;;;;;;;16.27;88.70;101423.63;8273277;28;20038;-61
2023/10/05 06:26:53;;;;;;;9.48;2.00;;;;;;;16.25;89.02;101423.78;8275167;28;20103;-61
2023/10/05 06:30:53;;;;;;;9.57;1.75;;;;;;;16.25;89.42;101425.69;8271284;28;20050;-61
2023/10/05 06:34:53;;;;;;;11.73;2.08;;;;;;;16.31;89.43;101431.34;8273533;28;20046;-61
2023/10/05 06:38:54;;;;;;;15.15;1.88;;;;;;;16.28;89.57;101430.84;8274029;28;20499;-64
2023/10/05 06:42:57;;;;;;;10.27;2.22;;;;;;;16.31;89.96;101419.59;8271954;28;20409;-61
2023/10/05 06:46:59;;;;;;;9.23;1.88;;;;;;;16.35;90.32;101421.84;8271303;28;20495;-64
2023/10/05 06:51:00;;;;;;;10.73;2.33;;;;;;;16.43;89.84;101424.69;8272471;28;20047;-64
2023/10/05 06:55:00;;;;;;;4.82;1.40;;;;;;;16.45;90.11;101417.22;8274107;28;20030;-64
2023/10/05 06:59:01;;;;;;;10.13;1.95;;;;;;;16.52;89.56;101422.88;8270642;28;20125;-64
2023/10/05 07:03:06;;;;;;;7.90;1.90;;;;;;;16.59;89.63;101416.63;8272187;28;20508;-66
2023/10/05 07:07:06;;;;;;;11.60;1.85;;;;;;;16.62;89.37;101418.22;8271567;28;20412;-68
2023/10/05 07:11:07;;;;;;;7.35;1.73;;;;;;;16.65;89.50;101428.81;8268913;28;20046;-67
2023/10/05 07:15:09;;;;;;;10.70;2.63;;;;;;;16.71;90.17;101433.66;8270366;28;20034;-66
2023/10/05 07:19:09;;;;;;;13.40;2.28;;;;;;;16.75;90.80;101445.97;8265508;28;20054;-65
2023/10/05 07:23:10;;;;;;;8.68;1.77;;;;;;;16.79;90.35;101441.91;8272233;28;20038;-64
2023/10/05 07:27:11;;;;;;;7.70;2.00;;;;;;;16.89;89.71;101453.59;8272563;28;20038;-64
2023/10/05 07:31:11;;;;;;;9.52;1.80;;;;;;;16.94;89.99;101462.19;8267652;28;20034;-65
2023/10/05 07:35:12;;;;;;;10.38;1.90;;;;;;;17.02;89.32;101465.00;8272765;28;20045;-64
2023/10/05 07:39:14;;;;;;;10.23;1.83;;;;;;;17.09;89.75;101474.25;8271250;28;20046;-64
2023/10/05 07:43:15;;;;;;;9.27;1.60;;;;;;;17.20;88.64;101484.94;8271395;28;20073;-64
2023/10/05 07:47:16;;;;;;;9.00;1.80;;;;;;;17.26;87.57;101484.31;8254095;28;20497;-64
2023/10/05 07:51:16;;;;;;;7.15;1.80;;;;;;;17.29;87.09;101506.69;8240059;28;20444;-64
2023/10/05 07:55:17;;;;;;;10.38;1.65;;;;;;;17.39;86.73;101499.22;8239170;28;20030;-60
2023/10/05 07:59:17;;;;;;;6.82;1.73;;;;;;;17.49;87.06;101496.44;8236920;28;20050;-61
2023/10/05 08:03:18;;;;;;;13.70;2.08;;;;;;;17.56;85.47;101494.75;8239243;28;20506;-62
2023/10/05 08:07:19;;;;;;;7.47;2.28;;;;;;;17.72;85.05;101503.09;8237554;28;20038;-62
2023/10/05 08:11:20;;;;;;;10.38;2.08;;;;;;;17.84;84.50;101507.22;8239338;28;20054;-61
2023/10/05 08:15:21;;;;;;;5.82;2.13;;;;;;;18.13;83.93;101518.66;8243641;28;20047;-61
2023/10/05 08:19:24;;;;;;;9.57;2.15;;;;;;;18.18;83.13;101515.44;8247224;28;20182;-62
2023/10/05 08:23:25;;;;;;;10.13;2.90;;;;;;;18.17;83.35;101514.56;8274259;28;20122;-66
2023/10/05 08:27:26;;;;;;;5.32;1.88;;;;;;;18.27;82.72;101515.28;8277622;28;20045;-61
2023/10/05 08:31:28;;;;;;;9.75;2.22;;;;;;;18.22;83.03;101522.28;8273185;28;20102;-60
2023/10/05 08:35:40;;;;;;;11.45;2.00;;;;;;;18.31;83.81;101516.69;8279025;28;20406;-61
2023/10/05 08:39:41;;;;;;;12.82;2.22;;;;;;;18.38;82.75;101522.38;8273045;28;20047;-61
2023/10/05 08:43:41;;;;;;;11.75;2.03;;;;;;;18.37;81.69;101527.00;8277123;28;20121;-61
2023/10/05 08:47:42;;;;;;;13.82;2.17;;;;;;;18.29;81.94;101528.81;8262599;28;20050;-61
2023/10/05 08:51:44;;;;;;;8.73;1.83;;;;;;;18.31;82.52;101535.84;8270842;28;20046;-61
2023/10/05 08:55:46;;;;;;;9.02;2.15;;;;;;;18.36;82.13;101525.25;8271520;28;20033;-64
2023/10/05 08:59:47;;;;;;;6.43;1.60;;;;;;;18.43;81.72;101531.81;8273019;28;20043;-64
2023/10/05 09:03:53;;;;;;;13.63;2.03;;;;;;;18.58;81.09;101530.16;8273030;28;20049;-63
2023/10/05 09:07:56;;;;;;;8.98;1.95;;;;;;;18.64;80.54;101529.50;8275491;28;20336;-61
2023/10/05 09:11:56;;;;;;;10.88;2.17;;;;;;;18.71;79.63;101530.53;8272015;28;20046;-61
2023/10/05 09:15:57;;;;;;;8.05;1.75;;;;;;;18.69;79.71;101539.91;8273756;28;20581;-64
2023/10/05 09:20:18;;;;;;;9.57;1.85;;;;;;;18.65;79.41;101550.38;8271071;28;20558;-63
2023/10/05 09:24:20;;;;;;;9.63;1.55;;;;;;;18.59;79.79;101553.78;8270997;28;20049;-64
2023/10/05 09:28:44;;;;;;;8.82;1.83;;;;;;;18.61;79.68;101553.63;8274749;28;20038;-61
2023/10/05 09:32:45;;;;;;;8.65;1.60;;;;;;;18.70;79.21;101549.88;8267423;28;20112;-61
2023/10/05 09:36:46;;;;;;;7.32;1.40;;;;;;;18.74;79.20;101556.72;8273751;28;20030;-66
2023/10/05 09:40:48;;;;;;;16.95;2.08;;;;;;;18.79;78.80;101571.63;8273998;28;20042;-61
2023/10/05 09:44:51;;;;;;;13.18;2.03;;;;;;;19.00;78.46;101563.78;8270702;28;20041;-61
2023/10/05 09:48:52;;;;;;;9.63;1.90;;;;;;;19.10;78.93;101570.00;8268068;28;20042;-61
2023/10/05 09:52:53;;;;;;;12.07;1.80;;;;;;;19.09;76.92;101576.47;8274101;28;20052;-61
2023/10/05 09:56:54;;;;;;;6.65;1.88;;;;;;;19.10;77.06;101578.22;8272145;28;20060;-62
2023/10/05 10:00:56;;;;;;;10.65;1.92;;;;;;;19.03;77.28;101585.38;8271556;28;20470;-61
2023/10/05 10:04:59;;;;;;;7.32;1.80;;;;;;;19.09;77.60;101590.19;8271254;28;20034;-63
2023/10/05 10:09:09;;;;;;;9.45;1.83;;;;;;;19.04;77.34;101598.06;8274421;28;20220;-62
2023/10/05 10:13:12;;;;;;;10.75;1.77;;;;;;;19.05;77.47;101588.81;8266812;28;20460;-62
2023/10/05 10:17:24;;;;;;;9.25;1.80;;;;;;;18.97;77.42;101588.78;8267795;28;20035;-62
2023/10/05 10:21:32;;;;;;;6.00;1.90;;;;;;;18.95;77.02;101585.38;8238909;28;20043;-62
2023/10/05 10:25:42;;;;;;;11.70;1.63;;;;;;;19.04;77.61;101583.50;8234140;28;20042;-64
2023/10/05 10:29:54;;;;;;;7.68;1.60;;;;;;;18.98;77.60;101576.81;8233982;28;20375;-62
2023/10/05 10:33:55;;;;;;;9.23;2.15;;;;;;;18.99;77.78;101581.25;8267498;28;20042;-62
2023/10/05 10:37:59;;;;;;;7.18;1.40;;;;;;;18.87;77.58;101566.16;8273889;28;20049;-64
2023/10/05 10:42:04;;;;;;;8.57;2.13;;;;;;;18.80;77.84;101583.44;8272638;28;20076;-65
2023/10/05 10:46:13;;;;;;;7.05;1.60;;;;;;;18.71;77.98;101585.31;8269638;28;20046;-63
2023/10/05 10:50:15;;;;;;;9.30;2.00;;;;;;;18.74;78.10;101582.25;8272227;28;20051;-60
2023/10/05 10:54:21;;;;;;;6.32;1.80;;;;;;;18.71;78.81;101579.84;8271549;28;20037;-61
2023/10/05 10:58:25;;;;;;;6.93;1.90;;;;;;;18.79;78.39;101574.34;8269862;28;20061;-62
2023/10/05 11:02:25;;;;;;;9.68;1.85;;;;;;;18.87;78.20;101579.00;8270879;28;20076;-61
2023/10/05 11:06:28;;;;;;;10.00;2.15;;;;;;;18.96;77.37;101583.47;8270089;28;20174;-62
2023/10/05 11:10:30;;;;;;;16.17;1.98;;;;;;;19.05;77.34;101588.81;8269710;28;20096;-61
2023/10/05 11:14:32;;;;;;;5.13;1.85;;;;;;;19.07;77.09;101575.81;8266251;28;20034;-62
2023/10/05 11:18:35;;;;;;;6.97;1.40;;;;;;;19.19;77.00;101579.91;8268781;28;20656;-61
2023/10/05 11:22:42;;;;;;;12.73;1.83;;;;;;;19.41;76.41;101568.31;8271041;28;20132;-62
2023/10/05 11:27:15;;;;;;;5.75;1.48;;;;;;;19.49;76.59;101565.53;8266648;28;21254;-61
2023/10/05 11:31:05;;;;;;;7.70;1.90;;;;;;;19.68;74.91;101547.88;8267410;28;20033;-62
2023/10/05 11:35:13;;;;;;;5.43;1.45;;;;;;;19.79;74.66;101544.75;8270200;28;20511;-63
2023/10/05 11:39:22;;;;;;;6.05;1.88;;;;;;;19.80;74.74;101538.25;8269987;28;20046;-62
2023/10/05 11:43:23;;;;;;;7.88;1.60;;;;;;;19.81;74.80;101539.06;8269914;28;20527;-62
2023/10/05 11:47:32;;;;;;;8.00;1.85;;;;;;;20.37;74.63;101541.69;8266691;28;20517;-64
2023/10/05 11:51:56;;;;;;;5.50;1.25;;;;;;;21.37;69.73;101538.78;8271110;28;20137;-65
2023/10/05 11:55:55;;;;;;;9.65;1.92;;;;;;;23.21;65.93;101539.22;8269625;28;20065;-64
2023/10/05 11:59:59;;;;;;;9.75;1.70;;;;;;;24.52;61.32;101544.66;8266537;28;20117;-64
2023/10/05 12:04:04;;;;;;;7.50;1.93;;;;;;;23.25;61.67;101545.22;8268809;28;20050;-65
2023/10/05 12:08:05;;;;;;;7.13;1.60;;;;;;;22.99;63.36;101552.16;8270027;28;20041;-63
2023/10/05 12:12:10;;;;;;;6.53;1.30;;;;;;;24.52;60.73;101541.06;8267046;28;20499;-64
2023/10/05 12:16:12;;;;;;;6.97;1.40;;;;;;;25.46;57.29;101546.44;8263269;28;20061;-65
2023/10/05 12:20:14;;;;;;;11.05;1.80;;;;;;;26.13;56.69;101532.34;8269087;28;20050;-65
2023/10/05 12:24:16;;;;;;;6.10;1.52;;;;;;;25.79;56.40;101536.19;8268940;28;20091;-65
2023/10/05 12:28:23;;;;;;;5.78;1.30;;;;;;;24.51;57.84;101550.38;8267246;28;20038;-65
2023/10/05 12:32:24;;;;;;;10.57;2.00;;;;;;;22.78;61.95;101537.50;8268418;28;20034;-65
2023/10/05 12:36:24;;;;;;;9.68;1.63;;;;;;;23.23;60.76;101547.31;8267008;28;20046;-65
2023/10/05 12:40:26;;;;;;;13.80;2.00;;;;;;;23.23;61.18;101541.78;8268520;28;20034;-65
2023/10/05 12:44:32;;;;;;;7.40;1.75;;;;;;;22.28;61.99;101546.59;8265304;28;20057;-65
2023/10/05 12:48:32;;;;;;;9.80;1.67;;;;;;;21.04;65.32;101541.78;8266206;28;20492;-64
2023/10/05 12:52:34;;;;;;;13.52;2.10;;;;;;;20.71;65.63;101551.25;8270357;28;20415;-64
2023/10/05 12:56:38;;;;;;;9.18;1.70;;;;;;;20.56;65.89;101549.47;8263237;28;20368;-63
2023/10/05 13:00:40;;;;;;;9.60;1.95;;;;;;;20.71;66.25;101553.16;8270628;28;20030;-61
2023/10/05 13:04:42;;;;;;;10.90;1.75;;;;;;;20.72;66.16;101550.25;8274691;28;20407;-60
2023/10/05 13:08:43;;;;;;;9.10;1.60;;;;;;;20.47;67.60;101539.56;8272720;28;20128;-60
2023/10/05 13:12:45;;;;;;;7.50;1.40;;;;;;;20.48;66.91;101538.50;8270947;28;20045;-63
2023/10/05 13:16:50;;;;;;;7.63;1.50;;;;;;;20.58;67.81;101547.38;8272383;28;20456;-61
2023/10/05 13:20:54;;;;;;;7.00;1.95;;;;;;;20.75;67.68;101543.50;8273623;28;20300;-65
2023/10/05 13:24:57;;;;;;;5.68;1.10;;;;;;;21.00;65.96;101553.34;8269518;28;20718;-64
2023/10/05 13:28:59;;;;;;;3.42;1.17;;;;;;;21.01;65.92;101550.41;8269654;28;20034;-62
2023/10/05 13:33:07;;;;;;;6.50;1.48;;;;;;;20.90;65.63;101547.19;8270710;28;20492;-61
2023/10/05 13:37:08;;;;;;;8.13;1.20;;;;;;;20.67;66.43;101547.16;8274368;28;20129;-62
2023/10/05 13:41:18;;;;;;;9.65;1.95;;;;;;;20.74;67.44;101547.31;8272617;28;20053;-60
2023/10/05 13:45:20;;;;;;;9.65;1.75;;;;;;;20.67;66.06;101551.78;8270132;28;20415;-60
2023/10/05 13:49:25;;;;;;;8.25;1.85;;;;;;;20.48;66.20;101542.13;8275001;28;20125;-61
2023/10/05 13:53:26;;;;;;;6.95;1.60;;;;;;;20.53;66.52;101544.34;8272503;28;20038;-61
2023/10/05 13:57:28;;;;;;;4.30;0.90;;;;;;;20.57;65.34;101552.03;8272807;28;20121;-61
2023/10/05 14:01:38;;;;;;;12.45;1.30;;;;;;;20.48;65.79;101546.75;8272609;28;20041;-60
2023/10/05 14:05:40;;;;;;;7.80;1.88;;;;;;;20.25;67.00;101545.84;8273971;28;20088;-60
2023/10/05 14:09:43;;;;;;;6.63;1.33;;;;;;;20.13;67.80;101545.34;8275816;28;20441;-60
2023/10/05 14:13:44;;;;;;;8.77;1.40;;;;;;;20.11;69.40;101538.31;8265904;28;20038;-61
2023/10/05 14:17:44;;;;;;;8.88;1.60;;;;;;;20.05;69.76;101539.00;8271422;28;20272;-61
2023/10/05 14:21:46;;;;;;;10.18;1.83;;;;;;;19.99;69.84;101529.59;8273777;28;20049;-63
2023/10/05 14:25:48;;;;;;;10.55;1.52;;;;;;;20.09;70.37;101534.88;8272790;28;20034;-61
2023/10/05 14:29:50;;;;;;;6.22;1.30;;;;;;;20.34;69.57;101529.13;8272752;28;20430;-61
2023/10/05 14:33:50;;;;;;;6.32;1.40;;;;;;;20.51;69.57;101521.66;8271717;28;20038;-61
2023/10/05 14:37:52;;;;;;;5.25;1.45;;;;;;;20.61;69.99;101525.03;8267223;28;20045;-61
2023/10/05 14:41:55;;;;;;;3.75;1.63;;;;;;;20.66;70.80;101517.97;8273613;28;20524;-61
2023/10/05 14:45:58;;;;;;;6.57;1.77;;;;;;;20.46;69.92;101516.72;8272179;28;20396;-60
2023/10/05 14:49:58;;;;;;;6.00;1.58;;;;;;;20.16;70.16;101525.78;8255548;28;20512;-61
2023/10/05 14:53:58;;;;;;;8.60;1.65;;;;;;;20.02;70.27;101517.41;8269793;28;20416;-60
2023/10/05 14:58:05;;;;;;;4.75;1.33;;;;;;;20.01;70.40;101516.56;8273076;28;20068;-61
2023/10/05 15:02:06;;;;;;;4.40;1.20;;;;;;;19.87;71.18;101508.19;8265504;28;20065;-62
2023/10/05 15:06:06;;;;;;;8.65;1.73;;;;;;;19.82;71.18;101516.09;8265665;28;20034;-61
2023/10/05 15:10:15;;;;;;;10.98;1.67;;;;;;;19.77;71.97;101518.50;8268372;28;20129;-65
2023/10/05 15:14:16;;;;;;;13.57;2.28;;;;;;;19.85;72.25;101521.25;8269292;28;20038;-63
2023/10/05 15:18:17;;;;;;;6.28;1.48;;;;;;;20.00;72.70;101519.47;8269119;28;20046;-60
2023/10/05 15:22:17;;;;;;;5.90;1.20;;;;;;;20.16;71.49;101519.44;8268926;28;20041;-60
2023/10/05 15:26:18;;;;;;;8.13;1.50;;;;;;;20.16;72.28;101516.69;8269721;28;20082;-60
2023/10/05 15:30:19;;;;;;;13.40;1.80;;;;;;;20.10;70.03;101520.13;8267727;28;20429;-60
2023/10/05 15:34:19;;;;;;;8.13;1.40;;;;;;;20.11;70.28;101516.34;8268554;28;20402;-60
2023/10/05 15:38:20;;;;;;;6.45;1.55;;;;;;;20.06;69.57;101518.78;8267389;28;20425;-60
2023/10/05 15:42:20;;;;;;;5.45;1.20;;;;;;;19.98;70.16;101518.78;8267731;28;20054;-60
2023/10/05 15:46:20;;;;;;;4.53;1.42;;;;;;;19.88;70.67;101516.25;8265698;28;20034;-60
2023/10/05 15:50:23;;;;;;;8.65;1.50;;;;;;;19.84;70.02;101511.28;8265686;28;20049;-60
2023/10/05 15:54:23;;;;;;;7.35;1.60;;;;;;;19.73;71.22;101512.50;8265952;28;20038;-60
2023/10/05 15:58:26;;;;;;;7.40;1.52;;;;;;;19.71;71.00;101519.22;8269559;28;20065;-62
2023/10/05 16:02:27;;;;;;;4.85;1.27;;;;;;;19.67;71.47;101512.38;8269332;28;20096;-63
2023/10/05 16:06:27;;;;;;;6.25;2.15;;;;;;;19.59;73.49;101512.38;8267146;28;20042;-62
2023/10/05 16:10:29;;;;;;;5.50;1.50;;;;;;;19.46;73.37;101511.03;8268265;28;20560;-62
2023/10/05 16:14:30;;;;;;;10.73;1.42;;;;;;;19.39;73.58;101515.50;8240824;28;20030;-63
2023/10/05 16:18:31;;;;;;;5.53;1.30;;;;;;;19.30;73.86;101516.53;8258313;28;20405;-62
2023/10/05 16:22:32;;;;;;;9.48;1.73;;;;;;;19.18;74.50;101506.91;8262733;28;20495;-62
2023/10/05 16:26:35;;;;;;;7.47;1.83;;;;;;;19.10;74.95;101517.91;8264816;28;20038;-62
2023/10/05 16:30:36;;;;;;;3.63;1.50;;;;;;;19.01;75.05;101520.78;8264820;28;20061;-60
2023/10/05 16:34:38;;;;;;;7.20;1.63;;;;;;;18.96;75.68;101524.03;8271521;28;20128;-60
2023/10/05 16:38:40;;;;;;;8.63;1.60;;;;;;;18.84;76.34;101514.44;8275142;28;20121;-60
2023/10/05 16:42:45;;;;;;;8.68;2.17;;;;;;;18.74;77.18;101527.44;8275296;28;20426;-61
2023/10/05 16:46:47;;;;;;;10.45;1.73;;;;;;;18.62;78.03;101531.53;8273646;28;20092;-62
2023/10/05 16:50:48;;;;;;;5.80;1.30;;;;;;;18.54;78.61;101530.66;8272364;28;20129;-66
2023/10/05 16:54:49;;;;;;;7.35;1.90;;;;;;;18.16;80.70;101529.28;8275466;28;20038;-65
2023/10/05 16:58:50;;;;;;;7.78;1.60;;;;;;;18.03;81.19;101534.38;8260508;28;20046;-66
2023/10/05 17:02:54;;;;;;;10.13;2.17;;;;;;;17.92;82.03;101540.13;8256216;28;20501;-67
2023/10/05 17:06:54;;;;;;;8.10;2.70;;;;;;;17.94;82.18;101542.69;8261654;28;20041;-64
2023/10/05 17:10:55;;;;;;;9.07;3.10;;;;;;;17.82;82.58;101550.34;8255680;28;20049;-65
2023/10/05 17:14:56;;;;;;;8.80;2.42;;;;;;;17.82;83.08;101554.94;8256220;28;20496;-65
2023/10/05 17:18:56;;;;;;;11.63;2.47;;;;;;;17.88;82.84;101552.41;8246552;28;20507;-65
2023/10/05 17:22:57;;;;;;;10.88;2.35;;;;;;;17.71;83.06;101558.81;8251569;28;20045;-64
2023/10/05 17:26:58;;;;;;;10.20;2.35;;;;;;;17.07;86.85;101561.00;8256865;28;20247;-62
2023/10/05 17:30:59;;;;;;;10.13;2.63;;;;;;;16.71;90.13;101564.75;8262180;28;20042;-62
2023/10/05 17:35:00;;;;;;;6.22;1.95;;;;;;;16.61;92.32;101570.25;8268491;28;20042;-62
2023/10/05 17:39:04;;;;;;;7.32;2.22;;;;;;;16.55;92.33;101570.88;8262886;28;20051;-62
2023/10/05 17:43:07;;;;;;;7.80;2.35;;;;;;;16.52;92.25;101570.31;8257259;28;20041;-63
2023/10/05 17:47:09;;;;;;;7.00;2.15;;;;;;;16.66;92.18;101567.06;8269795;28;20037;-65
2023/10/05 17:51:11;;;;;;;6.63;2.30;;;;;;;16.81;91.86;101566.38;8275512;28;20042;-63
2023/10/05 17:55:11;;;;;;;13.55;2.47;;;;;;;16.43;92.25;101568.47;8264275;28;20082;-62
2023/10/05 17:59:12;;;;;;;7.03;2.55;;;;;;;16.34;92.82;101564.78;8288488;28;20034;-64
2023/10/05 18:03:18;;;;;;;8.25;2.88;;;;;;;16.50;91.01;101564.16;8265186;28;20045;-65
2023/10/05 18:07:19;;;;;;;13.70;3.15;;;;;;;16.60;89.14;101563.09;8266622;28;20037;-65
2023/10/05 18:11:21;;;;;;;9.32;3.15;;;;;;;16.67;88.35;101564.19;8265926;28;20042;-64
2023/10/05 18:15:21;;;;;;;9.73;2.95;;;;;;;16.59;88.90;101566.81;8267434;28;20085;-65
2023/10/05 18:19:22;;;;;;;10.23;2.72;;;;;;;16.49;89.34;101565.16;8266820;28;20046;-65
2023/10/05 18:23:23;;;;;;;10.55;3.15;;;;;;;16.48;89.11;101571.63;8265156;28;20506;-65
2023/10/05 18:27:23;;;;;;;9.43;2.45;;;;;;;16.57;88.81;101570.72;8269876;28;20042;-64
2023/10/05 18:31:24;;;;;;;6.32;2.95;;;;;;;16.50;89.26;101580.56;8267911;28;20858;-64
2023/10/05 18:35:24;;;;;;;10.38;2.40;;;;;;;16.48;89.50;101568.91;8258725;28;20637;-65
2023/10/05 18:39:26;;;;;;;8.30;2.53;;;;;;;16.43;89.93;101565.72;8267846;28;20046;-63
2023/10/05 18:43:26;;;;;;;10.48;2.70;;;;;;;16.33;90.54;101564.94;8260624;28;20335;-63